Terminal Aerodrome Forecast
Issued by NWS Houston/Galveston, TX

Home | Current Version | Previous Version | Text Only | Print | Product List | Glossary On
Versions: 1 2 3 4 5 6 7 8 9 10 11 12 13 14 15 16 17 18 19 20 21 22 23 24 25 26 27 28 29 30 31 32 33
000
FTUS44 KHGX 201121
TAFGLS
TAF
KGLS 201121Z 2012/2112 13008KT P6SM OVC010
     FM201300 11010KT P6SM VCSH SCT007 BKN012
      TEMPO 2015/2018 VRB35KT 1SM +TSRA BKN010CB
     FM201800 36006KT 6SM -SHRA BR VCTS SCT010 BKN050CB
     FM202200 36005KT P6SM BKN100=

USA.gov is the U.S. government's official web portal to all federal, state and local government web resources and services.